Time;durP1;ratioP1;P1;durP2;ratioP2;P2;SDS_P1;SDS_P2;PMS_P1;PMS_P2;Temp;Humidity;BMP_temperature;BMP_pressure;BME280_temperature;BME280_humidity;BME280_pressure;Samples;Min_cycle;Max_cycle;Signal;HPM_P1;HPM_P2
2021/10/14 00:00:21;;;;;;;7.05;5.63;;;;;;;;;;2093422;28;20175;-54
2021/10/14 00:01:22;;;;;;;8.55;5.75;;;;;;;;;;2088039;28;20623;-54
2021/10/14 00:02:22;;;;;;;8.38;5.85;;;;;;;;;;2088712;28;20175;-54
2021/10/14 00:03:23;;;;;;;6.25;4.65;;;;;;;;;;2097698;28;20167;-53
2021/10/14 00:04:24;;;;;;;10.40;5.53;;;;;;;;;;2097224;28;20216;-54
2021/10/14 00:05:24;;;;;;;8.32;5.72;;;;;;;;;;2097097;28;20167;-53
2021/10/14 00:06:24;;;;;;;6.53;5.15;;;;;;;;;;2097643;28;20221;-51
2021/10/14 00:07:24;;;;;;;10.18;5.47;;;;;;;;;;2095668;28;20175;-54
2021/10/14 00:08:25;;;;;;;6.97;5.80;;;;;;;;;;2095205;28;20174;-54
2021/10/14 00:09:25;;;;;;;9.05;5.70;;;;;;;;;;2097463;28;20170;-57
2021/10/14 00:10:26;;;;;;;6.05;5.10;;;;;;;;;;2094149;28;20182;-50
2021/10/14 00:11:27;;;;;;;10.68;5.55;;;;;;;;;;2094341;28;20170;-52
2021/10/14 00:12:28;;;;;;;10.60;6.28;;;;;;;;;;2097165;28;20199;-51
2021/10/14 00:13:28;;;;;;;11.80;6.47;;;;;;;;;;2094080;28;20631;-52
2021/10/14 00:14:28;;;;;;;9.57;7.28;;;;;;;;;;2093798;28;20206;-53
2021/10/14 00:15:28;;;;;;;12.75;7.20;;;;;;;;;;2092483;28;20217;-53
2021/10/14 00:16:29;;;;;;;13.38;6.60;;;;;;;;;;2087868;28;20695;-53
2021/10/14 00:17:29;;;;;;;12.00;6.85;;;;;;;;;;2088528;28;20186;-56
2021/10/14 00:18:29;;;;;;;9.52;7.28;;;;;;;;;;2097218;28;20544;-52
2021/10/14 00:19:29;;;;;;;10.00;6.10;;;;;;;;;;2093593;28;20179;-50
2021/10/14 00:20:30;;;;;;;9.82;7.25;;;;;;;;;;2094935;28;20179;-51
2021/10/14 00:21:30;;;;;;;8.25;6.45;;;;;;;;;;2096841;28;20188;-51
2021/10/14 00:22:30;;;;;;;7.30;6.43;;;;;;;;;;2097296;28;20216;-51
2021/10/14 00:23:31;;;;;;;9.98;6.68;;;;;;;;;;2098090;28;20225;-51
2021/10/14 00:24:31;;;;;;;11.38;6.50;;;;;;;;;;2091806;28;20309;-54
2021/10/14 00:25:32;;;;;;;11.05;7.10;;;;;;;;;;2094502;28;20163;-54
2021/10/14 00:26:32;;;;;;;8.32;7.30;;;;;;;;;;2097973;28;20729;-51
2021/10/14 00:27:32;;;;;;;9.05;7.43;;;;;;;;;;2097837;28;20620;-52
2021/10/14 00:28:33;;;;;;;9.38;6.53;;;;;;;;;;2091337;28;20183;-52
2021/10/14 00:29:33;;;;;;;9.68;7.30;;;;;;;;;;2095718;28;20208;-53
2021/10/14 00:30:33;;;;;;;10.45;7.68;;;;;;;;;;2098385;28;20179;-56
2021/10/14 00:31:34;;;;;;;9.32;7.10;;;;;;;;;;2097820;28;20250;-52
2021/10/14 00:32:34;;;;;;;17.35;7.60;;;;;;;;;;2089742;28;20180;-51
2021/10/14 00:33:34;;;;;;;13.75;7.57;;;;;;;;;;2089222;28;20669;-50
2021/10/14 00:34:34;;;;;;;10.55;7.82;;;;;;;;;;2097300;28;20263;-55
2021/10/14 00:35:35;;;;;;;10.40;8.68;;;;;;;;;;2097887;28;20171;-51
2021/10/14 00:36:35;;;;;;;13.73;7.70;;;;;;;;;;2097302;28;20222;-55
2021/10/14 00:37:36;;;;;;;12.75;8.27;;;;;;;;;;2097459;28;20178;-52
2021/10/14 00:38:36;;;;;;;9.70;8.10;;;;;;;;;;2097990;28;20175;-53
2021/10/14 00:39:36;;;;;;;15.73;8.50;;;;;;;;;;2096520;28;20189;-56
2021/10/14 00:40:37;;;;;;;12.73;8.43;;;;;;;;;;2097618;28;20187;-53
2021/10/14 00:41:38;;;;;;;11.88;8.60;;;;;;;;;;2096615;28;20384;-50
2021/10/14 00:42:41;;;;;;;14.00;9.32;;;;;;;;;;2096337;28;20266;-54
2021/10/14 00:43:42;;;;;;;17.05;10.02;;;;;;;;;;2096933;28;20199;-53
2021/10/14 00:44:43;;;;;;;10.95;9.35;;;;;;;;;;2097018;28;20175;-54
2021/10/14 00:45:43;;;;;;;14.07;9.80;;;;;;;;;;2092966;28;20156;-50
2021/10/14 00:46:53;;;;;;;12.48;9.68;;;;;;;;;;2087869;28;20290;-53
2021/10/14 00:47:54;;;;;;;14.57;9.77;;;;;;;;;;2082016;28;20203;-49
2021/10/14 00:48:54;;;;;;;12.60;9.63;;;;;;;;;;2092281;28;20167;-53
2021/10/14 00:49:55;;;;;;;14.18;10.20;;;;;;;;;;2096822;28;20270;-51
2021/10/14 00:50:55;;;;;;;15.30;9.80;;;;;;;;;;2097566;28;20170;-54
2021/10/14 00:51:55;;;;;;;13.05;10.23;;;;;;;;;;2096837;28;20163;-52
2021/10/14 00:52:57;;;;;;;11.52;9.90;;;;;;;;;;2097171;28;20183;-53
2021/10/14 00:53:57;;;;;;;17.23;9.88;;;;;;;;;;2097010;28;20569;-51
2021/10/14 00:54:57;;;;;;;13.43;10.40;;;;;;;;;;2095592;28;20167;-53
2021/10/14 00:55:58;;;;;;;16.33;11.00;;;;;;;;;;2097738;28;20267;-51
2021/10/14 00:56:58;;;;;;;16.00;11.00;;;;;;;;;;2098267;28;20165;-55
2021/10/14 00:57:58;;;;;;;13.48;10.68;;;;;;;;;;2102034;28;20263;-53
2021/10/14 00:58:59;;;;;;;12.60;11.00;;;;;;;;;;2103190;28;20167;-53
2021/10/14 00:59:59;;;;;;;15.38;11.00;;;;;;;;;;2093659;28;20679;-54
2021/10/14 01:01:00;;;;;;;20.70;10.98;;;;;;;;;;2093553;28;20199;-53
2021/10/14 01:02:00;;;;;;;16.50;12.18;;;;;;;;;;2098335;28;20182;-52
2021/10/14 01:03:01;;;;;;;16.38;10.95;;;;;;;;;;2098053;28;20159;-50
2021/10/14 01:04:03;;;;;;;18.23;12.25;;;;;;;;;;2088897;28;20167;-49
2021/10/14 01:05:03;;;;;;;14.55;12.23;;;;;;;;;;2089973;28;20176;-49
2021/10/14 01:06:04;;;;;;;15.80;12.18;;;;;;;;;;2089884;28;20162;-50
2021/10/14 01:07:04;;;;;;;15.40;11.75;;;;;;;;;;2088912;28;20241;-51
2021/10/14 01:08:05;;;;;;;16.48;12.40;;;;;;;;;;2090034;28;20171;-51
2021/10/14 01:09:05;;;;;;;18.33;11.88;;;;;;;;;;2099523;28;20178;-51
2021/10/14 01:10:05;;;;;;;18.85;12.63;;;;;;;;;;2091975;28;20187;-50
2021/10/14 01:11:06;;;;;;;17.17;13.45;;;;;;;;;;2082359;28;20176;-54
2021/10/14 01:12:06;;;;;;;15.75;13.02;;;;;;;;;;2090778;28;20234;-54
2021/10/14 01:13:07;;;;;;;18.35;13.43;;;;;;;;;;2100081;28;20625;-53
2021/10/14 01:14:07;;;;;;;14.52;13.00;;;;;;;;;;2100023;28;20221;-54
2021/10/14 01:15:15;;;;;;;15.73;13.60;;;;;;;;;;2091240;28;20344;-53
2021/10/14 01:16:15;;;;;;;18.20;14.25;;;;;;;;;;2089303;28;20210;-52
2021/10/14 01:17:15;;;;;;;19.17;13.68;;;;;;;;;;2099723;28;20658;-51
2021/10/14 01:18:15;;;;;;;21.40;14.18;;;;;;;;;;2099581;28;20194;-53
2021/10/14 01:19:16;;;;;;;19.27;14.73;;;;;;;;;;2100220;28;20170;-54
2021/10/14 01:20:16;;;;;;;17.67;15.77;;;;;;;;;;2090166;28;20175;-56
2021/10/14 01:21:17;;;;;;;21.48;14.80;;;;;;;;;;2090823;28;20195;-54
2021/10/14 01:22:17;;;;;;;20.20;14.98;;;;;;;;;;2091787;28;20167;-53
2021/10/14 01:23:17;;;;;;;20.90;15.60;;;;;;;;;;2091465;28;20167;-52
2021/10/14 01:24:18;;;;;;;18.90;15.98;;;;;;;;;;2091477;28;20170;-54
2021/10/14 01:25:18;;;;;;;24.02;15.38;;;;;;;;;;2099363;28;20167;-52
2021/10/14 01:26:18;;;;;;;17.60;14.52;;;;;;;;;;2099976;28;20198;-51
2021/10/14 01:27:18;;;;;;;23.20;16.52;;;;;;;;;;2100412;28;20177;-51
2021/10/14 01:28:19;;;;;;;22.23;17.50;;;;;;;;;;2100146;28;20159;-49
2021/10/14 01:29:19;;;;;;;21.60;17.05;;;;;;;;;;2100652;28;20263;-56
2021/10/14 01:30:19;;;;;;;19.88;16.45;;;;;;;;;;2098516;28;20181;-54
2021/10/14 01:31:26;;;;;;;22.85;16.88;;;;;;;;;;2099389;28;20175;-56
2021/10/14 01:32:26;;;;;;;21.20;17.20;;;;;;;;;;2096322;28;20622;-52
2021/10/14 01:33:27;;;;;;;19.85;17.67;;;;;;;;;;2097805;28;20178;-52
2021/10/14 01:34:27;;;;;;;21.27;16.35;;;;;;;;;;2098613;28;20179;-53
2021/10/14 01:35:27;;;;;;;26.13;17.02;;;;;;;;;;2098679;28;20167;-51
2021/10/14 01:36:27;;;;;;;25.38;17.48;;;;;;;;;;2098142;28;20209;-55
2021/10/14 01:37:28;;;;;;;25.60;17.15;;;;;;;;;;2097197;28;20573;-52
2021/10/14 01:38:28;;;;;;;24.58;17.50;;;;;;;;;;2098749;28;20690;-52
2021/10/14 01:39:28;;;;;;;25.52;17.77;;;;;;;;;;2089967;28;20183;-53
2021/10/14 01:40:29;;;;;;;23.85;18.63;;;;;;;;;;2087788;28;20164;-52
2021/10/14 01:41:29;;;;;;;23.75;17.52;;;;;;;;;;2098109;28;20226;-51
2021/10/14 01:42:29;;;;;;;24.80;18.02;;;;;;;;;;2098307;28;20179;-52
2021/10/14 01:43:30;;;;;;;21.48;17.52;;;;;;;;;;2098705;28;20528;-49
2021/10/14 01:44:30;;;;;;;22.33;16.75;;;;;;;;;;2096902;28;20209;-55
2021/10/14 01:45:30;;;;;;;21.00;18.65;;;;;;;;;;2099720;28;20673;-53
2021/10/14 01:46:30;;;;;;;23.65;18.60;;;;;;;;;;2096574;28;20274;-54
2021/10/14 01:47:31;;;;;;;20.85;17.65;;;;;;;;;;2099079;28;20171;-58
2021/10/14 01:48:31;;;;;;;26.85;18.33;;;;;;;;;;2099382;28;20244;-52
2021/10/14 01:49:32;;;;;;;26.25;19.33;;;;;;;;;;2099653;28;20246;-52
2021/10/14 01:50:32;;;;;;;24.20;19.58;;;;;;;;;;2098329;28;20253;-50
2021/10/14 01:51:32;;;;;;;23.33;18.67;;;;;;;;;;2092137;28;20270;-54
2021/10/14 01:52:33;;;;;;;25.33;19.77;;;;;;;;;;2098930;28;20212;-54
2021/10/14 01:53:33;;;;;;;24.20;19.10;;;;;;;;;;2089465;28;20184;-54
2021/10/14 01:54:33;;;;;;;22.63;18.63;;;;;;;;;;2089575;28;20182;-51
2021/10/14 01:55:34;;;;;;;24.83;19.58;;;;;;;;;;2096759;28;20171;-52
2021/10/14 01:56:34;;;;;;;22.80;19.60;;;;;;;;;;2099855;28;20294;-52
2021/10/14 01:57:35;;;;;;;23.55;19.77;;;;;;;;;;2098499;28;20253;-56
2021/10/14 01:58:35;;;;;;;22.90;18.30;;;;;;;;;;2097798;28;20179;-52
2021/10/14 01:59:35;;;;;;;24.35;19.15;;;;;;;;;;2094316;28;20184;-54
2021/10/14 02:00:35;;;;;;;24.23;18.50;;;;;;;;;;2081118;28;20247;-51
2021/10/14 02:01:36;;;;;;;24.58;19.90;;;;;;;;;;2084332;28;20208;-51
2021/10/14 02:02:36;;;;;;;28.75;20.17;;;;;;;;;;2098648;28;20178;-52
2021/10/14 02:03:36;;;;;;;25.02;19.25;;;;;;;;;;2097527;28;20175;-52
2021/10/14 02:04:36;;;;;;;28.02;19.70;;;;;;;;;;2098433;28;20685;-51
2021/10/14 02:05:37;;;;;;;20.35;17.77;;;;;;;;;;2087462;28;20644;-50
2021/10/14 02:06:37;;;;;;;26.83;20.70;;;;;;;;;;2089310;28;20267;-51
2021/10/14 02:07:37;;;;;;;23.45;19.33;;;;;;;;;;2097340;28;20183;-51
2021/10/14 02:08:37;;;;;;;24.58;20.15;;;;;;;;;;2098727;28;20175;-57
2021/10/14 02:09:37;;;;;;;23.67;19.90;;;;;;;;;;2098250;28;20171;-55
2021/10/14 02:10:38;;;;;;;24.52;19.65;;;;;;;;;;2098379;28;20222;-54
2021/10/14 02:11:38;;;;;;;31.90;20.58;;;;;;;;;;2096951;28;20186;-50
2021/10/14 02:12:38;;;;;;;24.88;21.10;;;;;;;;;;2097981;28;20819;-53
2021/10/14 02:13:39;;;;;;;29.67;20.02;;;;;;;;;;2097724;28;20293;-51
2021/10/14 02:14:39;;;;;;;24.65;20.05;;;;;;;;;;2098580;28;20182;-51
2021/10/14 02:15:40;;;;;;;29.42;20.83;;;;;;;;;;2098939;28;20218;-57
2021/10/14 02:16:41;;;;;;;26.08;21.10;;;;;;;;;;2097398;28;20199;-55
2021/10/14 02:17:41;;;;;;;26.38;21.27;;;;;;;;;;2090153;28;20179;-51
2021/10/14 02:18:42;;;;;;;27.20;20.83;;;;;;;;;;2089544;28;20624;-51
2021/10/14 02:19:42;;;;;;;24.40;20.77;;;;;;;;;;2098161;28;20186;-50
2021/10/14 02:20:42;;;;;;;27.05;21.77;;;;;;;;;;2097673;28;20654;-55
2021/10/14 02:21:42;;;;;;;28.67;22.67;;;;;;;;;;2098678;28;20206;-56
2021/10/14 02:22:43;;;;;;;30.23;20.67;;;;;;;;;;2097982;28;20258;-51
2021/10/14 02:23:43;;;;;;;28.88;21.20;;;;;;;;;;2098736;28;20257;-51
2021/10/14 02:24:43;;;;;;;27.00;21.73;;;;;;;;;;2097912;28;20794;-54
2021/10/14 02:25:44;;;;;;;28.27;21.60;;;;;;;;;;2097937;28;20233;-54
2021/10/14 02:26:44;;;;;;;27.25;21.67;;;;;;;;;;2083932;28;20714;-54
2021/10/14 02:27:45;;;;;;;29.63;22.90;;;;;;;;;;2081792;28;20210;-52
2021/10/14 02:28:45;;;;;;;26.10;21.35;;;;;;;;;;2089045;28;20175;-56
2021/10/14 02:29:45;;;;;;;28.52;22.83;;;;;;;;;;2089784;28;20221;-51
2021/10/14 02:30:45;;;;;;;28.55;21.77;;;;;;;;;;2097272;28;20308;-50
2021/10/14 02:31:46;;;;;;;26.88;21.45;;;;;;;;;;2098548;28;20167;-51
2021/10/14 02:32:46;;;;;;;30.17;22.92;;;;;;;;;;2088676;28;20233;-51
2021/10/14 02:33:46;;;;;;;27.48;23.80;;;;;;;;;;2089214;28;20223;-51
2021/10/14 02:34:46;;;;;;;35.03;24.35;;;;;;;;;;2088745;28;20180;-50
2021/10/14 02:35:47;;;;;;;32.10;23.45;;;;;;;;;;2089149;28;20194;-51
2021/10/14 02:36:47;;;;;;;31.33;23.20;;;;;;;;;;2093522;28;20758;-54
2021/10/14 02:37:47;;;;;;;32.30;24.63;;;;;;;;;;2098101;28;20187;-52
2021/10/14 02:38:47;;;;;;;31.13;25.13;;;;;;;;;;2092327;28;20199;-52
2021/10/14 02:39:48;;;;;;;32.47;23.05;;;;;;;;;;2098518;28;20175;-51
2021/10/14 02:40:49;;;;;;;34.22;26.45;;;;;;;;;;2096165;28;20187;-54
2021/10/14 02:41:50;;;;;;;36.42;26.15;;;;;;;;;;2097569;28;20651;-53
2021/10/14 02:42:50;;;;;;;34.55;26.83;;;;;;;;;;2089213;28;20190;-51
2021/10/14 02:43:50;;;;;;;34.95;26.88;;;;;;;;;;2089832;28;20168;-51
2021/10/14 02:44:50;;;;;;;38.40;26.75;;;;;;;;;;2098084;28;20167;-51
2021/10/14 02:45:51;;;;;;;38.15;27.38;;;;;;;;;;2093983;28;20176;-52
2021/10/14 02:46:53;;;;;;;40.40;29.05;;;;;;;;;;2095894;28;20187;-53
2021/10/14 02:47:53;;;;;;;35.70;27.67;;;;;;;;;;2097526;28;20166;-55
2021/10/14 02:48:53;;;;;;;38.47;29.48;;;;;;;;;;2098205;28;20260;-51
2021/10/14 02:49:53;;;;;;;38.90;29.25;;;;;;;;;;2097604;28;20682;-54
2021/10/14 02:50:54;;;;;;;41.40;28.13;;;;;;;;;;2098312;28;20216;-52
2021/10/14 02:51:54;;;;;;;36.65;28.60;;;;;;;;;;2097534;28;20220;-55
2021/10/14 02:52:54;;;;;;;43.13;31.50;;;;;;;;;;2098789;28;20171;-53
2021/10/14 02:53:54;;;;;;;42.38;31.67;;;;;;;;;;2097342;28;20171;-53
2021/10/14 02:54:55;;;;;;;45.03;30.40;;;;;;;;;;2099138;28;20631;-52
2021/10/14 02:55:55;;;;;;;46.63;33.25;;;;;;;;;;2088537;28;20254;-53
2021/10/14 02:56:55;;;;;;;44.90;30.75;;;;;;;;;;2088881;28;20532;-54
2021/10/14 02:57:55;;;;;;;43.70;32.38;;;;;;;;;;2095702;28;20182;-51
2021/10/14 02:58:56;;;;;;;45.42;30.83;;;;;;;;;;2098460;28;20198;-50
2021/10/14 02:59:56;;;;;;;43.80;31.38;;;;;;;;;;2097769;28;20198;-54
2021/10/14 03:00:56;;;;;;;49.85;34.13;;;;;;;;;;2095020;28;20713;-50
2021/10/14 03:01:56;;;;;;;46.72;32.72;;;;;;;;;;2098218;28;20179;-54
2021/10/14 03:02:57;;;;;;;50.35;33.83;;;;;;;;;;2097753;28;20206;-52
2021/10/14 03:03:57;;;;;;;44.65;32.80;;;;;;;;;;2086331;28;20168;-54
2021/10/14 03:04:58;;;;;;;44.47;31.95;;;;;;;;;;2081150;28;20187;-53
2021/10/14 03:05:58;;;;;;;49.90;33.78;;;;;;;;;;2080494;28;20559;-50
2021/10/14 03:06:59;;;;;;;48.10;32.85;;;;;;;;;;2086325;28;20202;-50
2021/10/14 03:07:59;;;;;;;44.60;31.65;;;;;;;;;;2097545;28;20682;-54
2021/10/14 03:08:59;;;;;;;44.47;31.48;;;;;;;;;;2097636;28;20166;-55
2021/10/14 03:09:59;;;;;;;53.97;32.92;;;;;;;;;;2093523;28;20175;-52
2021/10/14 03:11:00;;;;;;;48.40;32.85;;;;;;;;;;2097447;28;20194;-53
2021/10/14 03:12:00;;;;;;;47.17;33.67;;;;;;;;;;2097435;28;20163;-54
2021/10/14 03:13:00;;;;;;;42.85;31.77;;;;;;;;;;2088831;28;20211;-51
2021/10/14 03:14:01;;;;;;;44.97;32.97;;;;;;;;;;2089030;28;20694;-53
2021/10/14 03:15:01;;;;;;;49.10;33.60;;;;;;;;;;2097235;28;20163;-57
2021/10/14 03:16:04;;;;;;;51.50;34.28;;;;;;;;;;2091951;28;20180;-55
2021/10/14 03:17:04;;;;;;;49.00;32.58;;;;;;;;;;2097116;28;20182;-54
2021/10/14 03:18:04;;;;;;;43.53;32.25;;;;;;;;;;2093134;28;20178;-53
2021/10/14 03:19:05;;;;;;;48.30;35.20;;;;;;;;;;2097703;28;20206;-51
2021/10/14 03:20:05;;;;;;;51.33;34.50;;;;;;;;;;2095536;28;20263;-52
2021/10/14 03:21:05;;;;;;;49.38;32.70;;;;;;;;;;2088470;28;20241;-54
2021/10/14 03:22:06;;;;;;;51.03;33.28;;;;;;;;;;2098382;28;20523;-51
2021/10/14 03:23:06;;;;;;;45.05;32.75;;;;;;;;;;2095506;28;21921;-54
2021/10/14 03:24:06;;;;;;;51.63;34.05;;;;;;;;;;2082852;28;20176;-54
2021/10/14 03:25:07;;;;;;;48.63;33.65;;;;;;;;;;2088861;28;20183;-51
2021/10/14 03:26:07;;;;;;;52.72;34.55;;;;;;;;;;2097851;28;20171;-51
2021/10/14 03:27:07;;;;;;;47.00;32.67;;;;;;;;;;2096788;28;20163;-53
2021/10/14 03:28:08;;;;;;;45.15;34.28;;;;;;;;;;2098151;28;20590;-51
2021/10/14 03:29:08;;;;;;;49.30;33.63;;;;;;;;;;2094287;28;20190;-53
2021/10/14 03:30:08;;;;;;;43.95;31.15;;;;;;;;;;2097648;28;20180;-52
2021/10/14 03:31:09;;;;;;;43.88;32.95;;;;;;;;;;2095673;28;20697;-55
2021/10/14 03:32:09;;;;;;;46.78;32.63;;;;;;;;;;2098295;28;20179;-51
2021/10/14 03:33:10;;;;;;;49.42;33.63;;;;;;;;;;2098463;28;20697;-51
2021/10/14 03:34:10;;;;;;;43.95;30.80;;;;;;;;;;2090284;28;20584;-51
2021/10/14 03:35:10;;;;;;;42.92;30.75;;;;;;;;;;2089608;28;20179;-51
2021/10/14 03:36:10;;;;;;;46.00;32.55;;;;;;;;;;2090253;28;20198;-51
2021/10/14 03:37:11;;;;;;;47.95;31.98;;;;;;;;;;2087164;28;20184;-55
2021/10/14 03:38:11;;;;;;;47.63;30.75;;;;;;;;;;2087454;28;20171;-55
2021/10/14 03:39:11;;;;;;;45.22;30.50;;;;;;;;;;2093999;28;20209;-52
2021/10/14 03:40:12;;;;;;;44.30;30.77;;;;;;;;;;2097585;28;20262;-51
2021/10/14 03:41:12;;;;;;;40.92;30.50;;;;;;;;;;2096908;28;20196;-51
2021/10/14 03:42:13;;;;;;;46.08;30.08;;;;;;;;;;2097767;28;20195;-53
2021/10/14 03:43:14;;;;;;;37.92;31.02;;;;;;;;;;2088813;28;20199;-50
2021/10/14 03:44:17;;;;;;;40.40;30.80;;;;;;;;;;2089471;28;20176;-53
2021/10/14 03:45:17;;;;;;;38.97;29.45;;;;;;;;;;2096755;28;20647;-53
2021/10/14 03:46:17;;;;;;;41.03;30.92;;;;;;;;;;2097186;28;20186;-57
2021/10/14 03:47:17;;;;;;;37.90;29.75;;;;;;;;;;2097657;28;20256;-54
2021/10/14 03:48:18;;;;;;;41.00;29.02;;;;;;;;;;2097247;28;20627;-53
2021/10/14 03:49:18;;;;;;;37.60;28.58;;;;;;;;;;2094100;28;20173;-51
2021/10/14 03:50:18;;;;;;;38.40;30.10;;;;;;;;;;2095388;28;20174;-55
2021/10/14 03:51:18;;;;;;;38.97;29.20;;;;;;;;;;2094350;28;20706;-52
2021/10/14 03:52:19;;;;;;;44.42;30.58;;;;;;;;;;2088081;28;20263;-50
2021/10/14 03:53:19;;;;;;;42.53;29.85;;;;;;;;;;2080980;28;20180;-51
2021/10/14 03:54:19;;;;;;;39.17;29.25;;;;;;;;;;2080418;28;20160;-53
2021/10/14 03:55:19;;;;;;;38.92;28.42;;;;;;;;;;2089399;28;20172;-51
2021/10/14 03:56:20;;;;;;;42.75;29.08;;;;;;;;;;2094908;28;20685;-50
2021/10/14 03:57:21;;;;;;;47.25;30.70;;;;;;;;;;2093754;28;20725;-51
2021/10/14 03:58:21;;;;;;;40.80;29.58;;;;;;;;;;2088140;28;20171;-52
2021/10/14 03:59:21;;;;;;;45.33;29.65;;;;;;;;;;2089276;28;20270;-58
2021/10/14 04:00:22;;;;;;;38.22;29.20;;;;;;;;;;2097183;28;20200;-50
2021/10/14 04:01:22;;;;;;;44.00;28.90;;;;;;;;;;2089228;28;20195;-52
2021/10/14 04:02:22;;;;;;;37.92;29.55;;;;;;;;;;2088819;28;20254;-54
2021/10/14 04:03:22;;;;;;;40.00;28.30;;;;;;;;;;2098149;28;20229;-54
2021/10/14 04:04:23;;;;;;;40.20;29.08;;;;;;;;;;2096288;28;20254;-52
2021/10/14 04:05:23;;;;;;;38.53;27.65;;;;;;;;;;2094524;28;20176;-51
2021/10/14 04:06:24;;;;;;;44.10;29.63;;;;;;;;;;2097042;28;20203;-53
2021/10/14 04:07:24;;;;;;;39.30;28.40;;;;;;;;;;2096214;28;20269;-51
2021/10/14 04:08:24;;;;;;;43.03;30.20;;;;;;;;;;2094086;28;20531;-51
2021/10/14 04:09:24;;;;;;;38.58;27.42;;;;;;;;;;2097310;28;20261;-54
2021/10/14 04:10:25;;;;;;;37.55;27.95;;;;;;;;;;2096665;28;20167;-55
2021/10/14 04:11:25;;;;;;;46.63;29.90;;;;;;;;;;2095916;28;20187;-53
2021/10/14 04:12:25;;;;;;;35.25;27.40;;;;;;;;;;2097539;28;20171;-53
2021/10/14 04:13:25;;;;;;;43.83;29.27;;;;;;;;;;2097362;28;20159;-51
2021/10/14 04:14:26;;;;;;;38.65;29.80;;;;;;;;;;2085825;28;20198;-52
2021/10/14 04:15:26;;;;;;;39.67;27.05;;;;;;;;;;2086533;28;20654;-51
2021/10/14 04:16:26;;;;;;;41.13;28.02;;;;;;;;;;2088419;28;20278;-50
2021/10/14 04:17:27;;;;;;;34.78;28.33;;;;;;;;;;2088410;28;20233;-53
2021/10/14 04:18:27;;;;;;;39.63;28.35;;;;;;;;;;2088133;28;20171;-53
2021/10/14 04:19:27;;;;;;;40.65;28.75;;;;;;;;;;2084318;28;20178;-56
2021/10/14 04:20:27;;;;;;;40.30;28.33;;;;;;;;;;2076963;28;20560;-56
2021/10/14 04:21:28;;;;;;;41.85;28.13;;;;;;;;;;2087655;28;20188;-51
2021/10/14 04:22:28;;;;;;;37.30;28.15;;;;;;;;;;2093250;28;20170;-56
2021/10/14 04:23:28;;;;;;;43.42;30.65;;;;;;;;;;2091375;28;20553;-53
2021/10/14 04:24:29;;;;;;;40.67;29.30;;;;;;;;;;2097196;28;20788;-53
2021/10/14 04:25:30;;;;;;;38.55;28.88;;;;;;;;;;2100937;28;20240;-56
2021/10/14 04:26:30;;;;;;;41.63;29.00;;;;;;;;;;2103787;28;20198;-54
2021/10/14 04:27:30;;;;;;;35.65;28.42;;;;;;;;;;2104384;28;20178;-57
2021/10/14 04:28:31;;;;;;;38.38;28.23;;;;;;;;;;2101807;28;20168;-55
2021/10/14 04:29:31;;;;;;;40.58;27.80;;;;;;;;;;2099278;28;20205;-52
2021/10/14 04:30:33;;;;;;;38.25;28.02;;;;;;;;;;2084623;28;20558;-52
2021/10/14 04:31:34;;;;;;;37.65;27.10;;;;;;;;;;2086541;28;20279;-52
2021/10/14 04:32:34;;;;;;;37.92;27.83;;;;;;;;;;2088428;28;20198;-55
2021/10/14 04:33:34;;;;;;;43.13;27.58;;;;;;;;;;2081714;28;20186;-55
2021/10/14 04:34:35;;;;;;;43.28;28.60;;;;;;;;;;2088339;28;20183;-54
2021/10/14 04:35:35;;;;;;;34.90;26.63;;;;;;;;;;2096810;28;20186;-50
2021/10/14 04:36:37;;;;;;;44.40;29.63;;;;;;;;;;2097341;28;20193;-52
2021/10/14 04:37:41;;;;;;;38.72;27.80;;;;;;;;;;2096263;28;20205;-52
2021/10/14 04:38:41;;;;;;;36.90;28.50;;;;;;;;;;2096602;28;20232;-54
2021/10/14 04:39:41;;;;;;;41.03;28.02;;;;;;;;;;2099005;28;20262;-54
2021/10/14 04:40:41;;;;;;;40.70;28.80;;;;;;;;;;2098125;28;20201;-50
2021/10/14 04:41:43;;;;;;;34.40;28.25;;;;;;;;;;2099832;28;20217;-52
2021/10/14 04:42:43;;;;;;;46.80;30.42;;;;;;;;;;2100360;28;20225;-54
2021/10/14 04:43:43;;;;;;;38.63;28.73;;;;;;;;;;2097992;28;20178;-52
2021/10/14 04:44:43;;;;;;;38.92;27.55;;;;;;;;;;2099696;28;20250;-53
2021/10/14 04:45:44;;;;;;;39.78;29.70;;;;;;;;;;2098634;28;20179;-53
2021/10/14 04:46:44;;;;;;;39.10;28.30;;;;;;;;;;2099334;28;20210;-52
2021/10/14 04:47:45;;;;;;;45.40;29.90;;;;;;;;;;2099088;28;20211;-52
2021/10/14 04:48:45;;;;;;;42.65;29.30;;;;;;;;;;2098170;28;20258;-51
2021/10/14 04:49:46;;;;;;;39.08;27.88;;;;;;;;;;2098917;28;20182;-53
2021/10/14 04:50:46;;;;;;;42.28;30.40;;;;;;;;;;2098491;28;20175;-52
2021/10/14 04:51:46;;;;;;;41.55;28.00;;;;;;;;;;2094814;28;20263;-51
2021/10/14 04:52:46;;;;;;;44.13;29.15;;;;;;;;;;2098643;28;20204;-52
2021/10/14 04:53:47;;;;;;;47.50;29.77;;;;;;;;;;2098835;28;20699;-50
2021/10/14 04:54:47;;;;;;;41.55;29.88;;;;;;;;;;2099069;28;20569;-50
2021/10/14 04:55:47;;;;;;;44.13;28.52;;;;;;;;;;2093644;28;20191;-51
2021/10/14 04:56:47;;;;;;;39.63;28.85;;;;;;;;;;2099188;28;20203;-56
2021/10/14 04:57:48;;;;;;;44.78;31.40;;;;;;;;;;2098699;28;20175;-53
2021/10/14 04:58:48;;;;;;;40.83;29.73;;;;;;;;;;2097543;28;20190;-53
2021/10/14 04:59:48;;;;;;;50.72;31.77;;;;;;;;;;2095909;28;20175;-55
2021/10/14 05:00:48;;;;;;;39.55;29.75;;;;;;;;;;2092057;28;20658;-54
2021/10/14 05:01:49;;;;;;;46.30;31.05;;;;;;;;;;2099112;28;20206;-52
2021/10/14 05:02:49;;;;;;;48.90;31.00;;;;;;;;;;2098898;28;20174;-57
2021/10/14 05:03:49;;;;;;;45.80;31.08;;;;;;;;;;2092186;28;20186;-54
2021/10/14 05:04:49;;;;;;;42.33;30.55;;;;;;;;;;2089316;28;20179;-53
2021/10/14 05:05:51;;;;;;;42.28;31.00;;;;;;;;;;2089226;28;20186;-56
2021/10/14 05:06:51;;;;;;;44.85;29.98;;;;;;;;;;2098335;28;20230;-55
2021/10/14 05:07:51;;;;;;;44.50;31.98;;;;;;;;;;2091414;28;20653;-52
2021/10/14 05:08:51;;;;;;;47.30;32.08;;;;;;;;;;2098366;28;20197;-52
2021/10/14 05:09:51;;;;;;;57.35;31.75;;;;;;;;;;2099000;28;20698;-52
2021/10/14 05:10:52;;;;;;;45.40;32.58;;;;;;;;;;2098325;28;20683;-54
2021/10/14 05:11:52;;;;;;;45.13;31.38;;;;;;;;;;2098765;28;20171;-53
2021/10/14 05:12:52;;;;;;;48.92;31.63;;;;;;;;;;2097666;28;20627;-51
2021/10/14 05:13:52;;;;;;;44.70;32.15;;;;;;;;;;2095895;28;20175;-57
2021/10/14 05:14:53;;;;;;;51.97;32.78;;;;;;;;;;2097808;28;20163;-53
2021/10/14 05:15:53;;;;;;;45.08;32.50;;;;;;;;;;2098885;28;20631;-53
2021/10/14 05:16:53;;;;;;;50.63;31.95;;;;;;;;;;2098835;28;20246;-51
2021/10/14 05:17:53;;;;;;;47.72;30.63;;;;;;;;;;2097413;28;20186;-53
2021/10/14 05:18:54;;;;;;;52.83;34.03;;;;;;;;;;2099774;28;20174;-53
2021/10/14 05:19:54;;;;;;;47.63;34.13;;;;;;;;;;2099057;28;20194;-50
2021/10/14 05:20:54;;;;;;;47.03;32.28;;;;;;;;;;2097356;28;20179;-50
2021/10/14 05:21:54;;;;;;;52.03;32.65;;;;;;;;;;2100022;28;20174;-51
2021/10/14 05:22:54;;;;;;;51.25;33.70;;;;;;;;;;2099448;28;20265;-53
2021/10/14 05:23:59;;;;;;;44.90;31.77;;;;;;;;;;2096416;28;20207;-53
2021/10/14 05:24:59;;;;;;;46.22;32.42;;;;;;;;;;2091321;28;20533;-54
2021/10/14 05:25:59;;;;;;;45.83;32.10;;;;;;;;;;2083174;28;20207;-54
2021/10/14 05:27:00;;;;;;;49.72;33.05;;;;;;;;;;2099751;22;20281;-58
2021/10/14 05:28:00;;;;;;;46.63;31.42;;;;;;;;;;2089306;28;20648;-61
2021/10/14 05:29:00;;;;;;;45.78;31.80;;;;;;;;;;2085022;28;20222;-57
2021/10/14 05:30:01;;;;;;;47.45;32.78;;;;;;;;;;2093010;28;20648;-60
2021/10/14 05:31:01;;;;;;;49.33;32.47;;;;;;;;;;2096620;28;20175;-60
2021/10/14 05:32:02;;;;;;;47.90;33.83;;;;;;;;;;2099066;28;20193;-59
2021/10/14 05:33:02;;;;;;;42.88;32.33;;;;;;;;;;2095252;28;20228;-59
2021/10/14 05:34:08;;;;;;;52.47;35.15;;;;;;;;;;2098567;28;20233;-56
2021/10/14 05:35:09;;;;;;;53.60;35.05;;;;;;;;;;2089847;28;20714;-59
2021/10/14 05:36:09;;;;;;;45.75;30.40;;;;;;;;;;2086039;28;20198;-61
2021/10/14 05:37:09;;;;;;;58.58;34.33;;;;;;;;;;2097125;28;20211;-59
2021/10/14 05:38:10;;;;;;;49.53;33.20;;;;;;;;;;2096108;28;20174;-60
2021/10/14 05:39:10;;;;;;;57.88;35.17;;;;;;;;;;2089839;28;20257;-61
2021/10/14 05:40:10;;;;;;;57.70;35.53;;;;;;;;;;2090447;28;20515;-58
2021/10/14 05:41:10;;;;;;;58.67;36.80;;;;;;;;;;2090477;28;20585;-57
2021/10/14 05:42:11;;;;;;;55.70;37.03;;;;;;;;;;2085879;28;20175;-57
2021/10/14 05:43:11;;;;;;;66.30;37.95;;;;;;;;;;2090017;28;20170;-59
2021/10/14 05:44:11;;;;;;;55.50;36.10;;;;;;;;;;2081408;28;20172;-52
2021/10/14 05:45:13;;;;;;;60.95;37.70;;;;;;;;;;2076610;28;20180;-59
2021/10/14 05:46:14;;;;;;;60.97;37.92;;;;;;;;;;2076779;28;20670;-59
2021/10/14 05:47:14;;;;;;;64.20;39.60;;;;;;;;;;2089295;28;20234;-56
2021/10/14 05:48:14;;;;;;;60.28;38.17;;;;;;;;;;2086133;28;20203;-62
2021/10/14 05:49:14;;;;;;;60.60;37.55;;;;;;;;;;2089250;28;20203;-61
2021/10/14 05:50:15;;;;;;;63.28;36.63;;;;;;;;;;2080871;28;20174;-61
2021/10/14 05:51:15;;;;;;;77.38;39.38;;;;;;;;;;2076666;28;20176;-57
2021/10/14 05:52:15;;;;;;;63.13;38.80;;;;;;;;;;2078051;28;20192;-58